Water Levels and Discharges  |  Reservoirs  |  Precipitation  |  Water quality Last site revision 11.08.2020 05:21:53
             
Water Levels and Discharges CAUTION: All data are without validation 11.08.2020 05:28:34
Any delay data CHMI stations is caused by the delay of data transfer between CHMI and the watershed, current data are on www.chmi.cz
All facilities Závod Karlovy Vary Závod Chomutov Závod Terezín
Measurement summary  11.08.2020All facilities
Station River Graph Last measured
Qa
Q355
Remark
water levelDischarge
[cm] ([h])[m3.s-1] ([h])[m3.s-1][m3.s-1]
 Jez Terezín dolní hladina  Ohře 144.71 * ( 05:10 )
 Jez Terezín horní hladina  Ohře 147.76 * ( 05:10 )
 LG Benešov nad Ploučnicí  Ploučnice 71 ( 05:10 ) 2.539 ( 05:10 ) 7.979 2.850
 LG Bílina (ČD)  Bílina 91 ( 05:10 ) 0.834 ( 05:10 ) 3.300 1.580
 LG Bílý Potok - Záluží  Bílý potok 23 ( 05:10 ) 0.091 ( 05:10 ) 0.280 0.040
 LG Březová  Teplá 5 ( 05:10 ) 0.316 ( 05:10 ) 2.730 0.230
 LG Brozany  Ohře 57 ( 05:10 ) 8.254 ( 05:10 ) 37.90 5.300
 LG Česká Lípa  Ploučnice 13 ( 05:10 ) 1.852 ( 05:10 ) 4.900 1.890
 LG Český Jiřetín  Flájský potok-HVT č. 152, 153, 163 38 ( 05:10 ) 0.086 ( 05:10 ) 1.000 0.080
 LG Cheb  Ohře 36 ( 05:10 ) 1.254 ( 05:10 ) 6.860 0.950
 LG Chomutov (MÚ)  Chomutovka 3 ( 05:10 ) 0.058 ( 05:10 ) 0.670 0.070
 LG Chřibská - odtok  Chřibská Kamenice 4 ( 05:10 ) 0.020 ( 05:10 ) 0.074 0.019
 LG Citice  Ohře 56 ( 05:10 ) 2.746 ( 05:10 ) 14.40 3.410
 LG Drahovice  Ohře 37 ( 05:10 ) 5.445 ( 05:10 ) 25.20 6.220
 LG Hačka - pod odlehčením  Hačka 1 ( 05:10 ) 0.004 ( 05:10 ) 0.010
 LG Horka  Libocký potok 20 ( 05:10 ) 0.103 ( 05:10 ) 0.559 0.087
 LG III. Mlýn  Chomutovka 17 ( 05:10 ) 0.066 ( 05:10 ) 0.540 0.050
 LG Janov - odtok  Loupnice 6 ( 05:10 ) 0.031 ( 05:10 ) 0.130 0.014
 LG Jánský most  Teplá 4 ( 05:10 ) 0.387 ( 05:10 ) 3.080 0.290
 LG Jesenice  Odrava-HVT č. 37 43 ( 05:10 ) 0.786 ( 05:10 ) 3.530 0.550
 LG Jirkov - odtok  Bílina 5 ( 05:10 ) 0.011 ( 05:10 ) 0.336 0.035
 LG Klášterec nad Ohří  Ohře 78 ( 05:10 ) 11.60 ( 05:10 ) 29.00 4.400
 LG Kraslice  Svatava-HVT č. 220 8 ( 05:10 ) 0.275 ( 05:10 ) 2.150 0.270
 LG Kryry  Blšanka 17 ( 05:10 ) 0.026 ( 05:10 ) 0.170
 LG Louny  Ohře 166 ( 05:10 ) 7.973 ( 05:10 ) 37.30 11.10
 LG Mimoň  Ploučnice 18 ( 05:10 ) 1.004 ( 05:10 ) 2.300 0.810
 LG Ostrov nad Ohří  Bystřice 1 ( 05:10 ) 0.333 ( 05:10 ) 2.060 0.230
 LG Pertoltice  Panenský potok 27 ( 05:10 ) 0.563 ( 05:10 ) 1.080 0.310
 LG Podhora  Teplá 19 ( 05:10 ) 0.027 ( 05:10 ) 0.215 0.027
 LG Přísečnice  Přísečnický potok 9 ( 05:10 ) 0.096 ( 05:10 ) 1.010 0.113
 LG Srbská Kamenice  Kamenice 30 ( 05:10 ) 0.311 ( 05:10 ) 1.080 0.390
 LG Stanovice  Lomnický potok 17 ( 05:10 ) 0.078 ( 05:10 ) 0.560 0.050
 LG Stará Role  Rolava 25 ( 05:10 ) 0.538 ( 05:10 ) 2.500 0.540
 LG Stranná  Ohře 18 ( 05:10 ) 8.636 ( 05:10 ) 30.70 4.600
 LG Stráž pod Ralskem - město  Ploučnice 34 ( 05:10 ) 0.357 ( 05:10 ) 1.000 0.340
 LG Svatava  Svatava-HVT č. 220 20 ( 05:10 ) 0.686 ( 05:10 ) 4.510 0.952
 LG Teplička  Teplá 3 ( 05:10 ) 0.092 ( 05:10 ) 2.470 0.220
 LG Trmice  Bílina 104 ( 05:10 ) 2.178 ( 05:10 ) 7.240 2.480
 LG Újezd  Bílina 48 ( 05:10 ) 0.757 ( 05:10 ) 0.860 0.090
 LG Varnsdorf  Mandava - HVT č.14 7 ( 05:10 ) 0.135 ( 05:10 ) 0.800 0.214
 LG Vědlice  Úštěcký potok 0.330 0.078
 LG Vilémov  Liboc 12 ( 05:10 ) 0.008 ( 05:10 ) 0.160
 LG Všechlapy - odtok  Bouřlivec 7 ( 05:10 ) 0.014 ( 05:10 ) 0.978 0.156
 LG Zahrádky  Robečský p. (Mlýnský) 35 ( 05:10 ) 0.179 ( 05:10 ) 1.200 0.240
 LG Zákupy  Svitávka 45 ( 05:10 ) 0.126 ( 05:10 ) 1.000 0.285
 LG Žatec  Ohře 38 ( 05:10 ) 8.310 ( 05:10 ) 32.30 4.800
* [m asl]
Qaaverage discharge
Q355average daily discharge reached or exceeded 355 days a year
  Povodí Ohře, státní podnik © 2020 The system uses also data from measuring stations of   Czech Hydrometeorological Institute © 2020 Application developed by   MGE Data s.r.o. © 1996 - 2015